sensor_id;sensor_type;location;lat;lon;timestamp;temperature;humidity
21666;DHT22;10994;45.486;9.190;2024-03-02T20:35:04;12.90;99.90
21666;DHT22;10994;45.486;9.190;2024-03-02T20:37:30;12.90;99.90
21666;DHT22;10994;45.486;9.190;2024-03-02T20:39:55;13.00;99.90
21666;DHT22;10994;45.486;9.190;2024-03-02T20:42:27;13.10;99.90
21666;DHT22;10994;45.486;9.190;2024-03-02T20:44:52;13.20;99.90
21666;DHT22;10994;45.486;9.190;2024-03-02T20:47:18;13.30;99.90
21666;DHT22;10994;45.486;9.190;2024-03-02T20:49:44;13.40;99.90
21666;DHT22;10994;45.486;9.190;2024-03-02T20:52:10;13.50;99.90
21666;DHT22;10994;45.486;9.190;2024-03-02T20:54:36;13.50;99.90
21666;DHT22;10994;45.486;9.190;2024-03-02T20:57:03;13.60;99.90
21666;DHT22;10994;45.486;9.190;2024-03-02T20:59:33;13.60;99.90
21666;DHT22;10994;45.486;9.190;2024-03-02T21:01:58;13.70;99.90
21666;DHT22;10994;45.486;9.190;2024-03-02T21:04:27;13.80;99.90
21666;DHT22;10994;45.486;9.190;2024-03-02T21:06:53;13.70;99.90
21666;DHT22;10994;45.486;9.190;2024-03-02T21:09:19;13.70;99.90
21666;DHT22;10994;45.486;9.190;2024-03-02T21:11:45;13.70;99.90
21666;DHT22;10994;45.486;9.190;2024-03-02T21:14:12;13.70;99.90
21666;DHT22;10994;45.486;9.190;2024-03-02T21:16:37;13.90;99.90
21666;DHT22;10994;45.486;9.190;2024-03-02T21:19:06;14.00;99.90
21666;DHT22;10994;45.486;9.190;2024-03-02T21:21:32;13.90;99.90
21666;DHT22;10994;45.486;9.190;2024-03-02T21:23:57;14.00;99.90
21666;DHT22;10994;45.486;9.190;2024-03-02T21:26:23;13.70;99.90
21666;DHT22;10994;45.486;9.190;2024-03-02T21:28:49;14.00;99.90
21666;DHT22;10994;45.486;9.190;2024-03-02T21:31:17;13.80;99.90
21666;DHT22;10994;45.486;9.190;2024-03-02T21:33:43;14.00;99.90
21666;DHT22;10994;45.486;9.190;2024-03-02T21:36:09;14.20;99.90
21666;DHT22;10994;45.486;9.190;2024-03-02T21:38:35;14.30;99.90
21666;DHT22;10994;45.486;9.190;2024-03-02T21:41:01;14.40;99.90
21666;DHT22;10994;45.486;9.190;2024-03-02T21:43:26;14.50;99.90
21666;DHT22;10994;45.486;9.190;2024-03-02T21:45:53;14.60;99.90
21666;DHT22;10994;45.486;9.190;2024-03-02T21:48:19;14.60;99.90
21666;DHT22;10994;45.486;9.190;2024-03-02T21:50:44;14.60;99.90
21666;DHT22;10994;45.486;9.190;2024-03-02T21:53:10;14.60;99.90
21666;DHT22;10994;45.486;9.190;2024-03-02T21:55:38;14.60;99.90
21666;DHT22;10994;45.486;9.190;2024-03-02T21:58:07;14.60;99.90
21666;DHT22;10994;45.486;9.190;2024-03-02T22:00:32;14.60;99.90
21666;DHT22;10994;45.486;9.190;2024-03-02T22:03:02;14.70;99.90
21666;DHT22;10994;45.486;9.190;2024-03-02T22:05:29;14.70;99.90
21666;DHT22;10994;45.486;9.190;2024-03-02T22:07:56;14.70;99.90
21666;DHT22;10994;45.486;9.190;2024-03-02T22:10:25;14.80;99.90
21666;DHT22;10994;45.486;9.190;2024-03-02T22:12:54;14.90;99.90
21666;DHT22;10994;45.486;9.190;2024-03-02T22:15:21;14.90;99.90
21666;DHT22;10994;45.486;9.190;2024-03-02T22:17:46;14.80;99.90
21666;DHT22;10994;45.486;9.190;2024-03-02T22:20:12;14.90;99.90
21666;DHT22;10994;45.486;9.190;2024-03-02T22:22:38;14.90;99.90
21666;DHT22;10994;45.486;9.190;2024-03-02T22:25:09;14.60;99.90
21666;DHT22;10994;45.486;9.190;2024-03-02T22:27:35;14.60;99.90
21666;DHT22;10994;45.486;9.190;2024-03-02T22:30:06;14.70;99.90
21666;DHT22;10994;45.486;9.190;2024-03-02T22:32:32;14.60;99.90
21666;DHT22;10994;45.486;9.190;2024-03-02T22:34:57;14.70;99.90
21666;DHT22;10994;45.486;9.190;2024-03-02T22:37:23;14.70;99.90
21666;DHT22;10994;45.486;9.190;2024-03-02T22:39:48;14.80;99.90
21666;DHT22;10994;45.486;9.190;2024-03-02T22:42:14;14.80;99.90
21666;DHT22;10994;45.486;9.190;2024-03-02T22:44:40;14.70;99.90
21666;DHT22;10994;45.486;9.190;2024-03-02T22:47:06;14.60;99.90
21666;DHT22;10994;45.486;9.190;2024-03-02T22:49:32;14.70;99.90
21666;DHT22;10994;45.486;9.190;2024-03-02T22:51:57;14.70;99.90
21666;DHT22;10994;45.486;9.190;2024-03-02T22:54:23;14.70;99.90
21666;DHT22;10994;45.486;9.190;2024-03-02T22:56:52;14.90;99.90
21666;DHT22;10994;45.486;9.190;2024-03-02T22:59:17;14.80;99.90
21666;DHT22;10994;45.486;9.190;2024-03-02T23:01:43;14.90;99.90
21666;DHT22;10994;45.486;9.190;2024-03-02T23:04:10;14.70;99.90
21666;DHT22;10994;45.486;9.190;2024-03-02T23:06:36;14.70;99.90
21666;DHT22;10994;45.486;9.190;2024-03-02T23:09:02;14.80;99.90
21666;DHT22;10994;45.486;9.190;2024-03-02T23:11:29;14.90;99.90
21666;DHT22;10994;45.486;9.190;2024-03-02T23:13:54;15.00;99.90
21666;DHT22;10994;45.486;9.190;2024-03-02T23:16:21;14.90;99.90
21666;DHT22;10994;45.486;9.190;2024-03-02T23:18:47;15.00;99.90
21666;DHT22;10994;45.486;9.190;2024-03-02T23:21:13;15.00;99.90
21666;DHT22;10994;45.486;9.190;2024-03-02T23:23:40;15.00;99.90
21666;DHT22;10994;45.486;9.190;2024-03-02T23:26:06;14.90;99.90
21666;DHT22;10994;45.486;9.190;2024-03-02T23:28:32;14.80;99.90
21666;DHT22;10994;45.486;9.190;2024-03-02T23:30:58;14.90;99.90
21666;DHT22;10994;45.486;9.190;2024-03-02T23:33:24;15.00;99.90
21666;DHT22;10994;45.486;9.190;2024-03-02T23:35:50;14.80;99.90
21666;DHT22;10994;45.486;9.190;2024-03-02T23:38:15;14.90;99.90
21666;DHT22;10994;45.486;9.190;2024-03-02T23:40:41;14.90;99.90
21666;DHT22;10994;45.486;9.190;2024-03-02T23:43:13;14.90;99.90
21666;DHT22;10994;45.486;9.190;2024-03-02T23:45:39;15.10;99.90
21666;DHT22;10994;45.486;9.190;2024-03-02T23:48:08;15.20;99.90
21666;DHT22;10994;45.486;9.190;2024-03-02T23:50:35;15.10;99.90
21666;DHT22;10994;45.486;9.190;2024-03-02T23:53:00;15.20;99.90
21666;DHT22;10994;45.486;9.190;2024-03-02T23:55:26;15.30;99.90
21666;DHT22;10994;45.486;9.190;2024-03-02T23:57:53;15.30;99.90
